sensor_id;sensor_type;location;lat;lon;timestamp;pressure;altitude;pressure_sealevel;temperature;humidity
74542;BME280;63015;45.378;20.360;2024-02-14T00:01:30;101043.97;;;7.35;67.47
74542;BME280;63015;45.378;20.360;2024-02-14T00:03:30;101058.53;;;7.29;67.80
74542;BME280;63015;45.378;20.360;2024-02-14T00:05:31;101048.00;;;7.22;67.90
74542;BME280;63015;45.378;20.360;2024-02-14T00:07:31;101050.59;;;7.22;68.14
74542;BME280;63015;45.378;20.360;2024-02-14T00:09:32;101048.75;;;7.17;68.16
74542;BME280;63015;45.378;20.360;2024-02-14T00:11:32;101055.25;;;6.99;68.69
74542;BME280;63015;45.378;20.360;2024-02-14T00:13:33;101055.03;;;6.90;69.34
74542;BME280;63015;45.378;20.360;2024-02-14T00:15:34;101064.25;;;6.79;70.04
74542;BME280;63015;45.378;20.360;2024-02-14T00:17:34;101060.56;;;6.69;70.02
74542;BME280;63015;45.378;20.360;2024-02-14T00:19:35;101064.25;;;6.44;71.17
74542;BME280;63015;45.378;20.360;2024-02-14T00:21:35;101072.53;;;6.30;71.76
74542;BME280;63015;45.378;20.360;2024-02-14T00:23:36;101076.50;;;6.17;72.02
74542;BME280;63015;45.378;20.360;2024-02-14T00:25:37;101073.75;;;6.13;71.93
74542;BME280;63015;45.378;20.360;2024-02-14T00:27:37;101088.28;;;6.07;72.13
74542;BME280;63015;45.378;20.360;2024-02-14T00:29:38;101078.72;;;6.05;71.93
74542;BME280;63015;45.378;20.360;2024-02-14T00:31:38;101080.28;;;5.98;72.35
74542;BME280;63015;45.378;20.360;2024-02-14T00:33:39;101086.16;;;5.94;72.58
74542;BME280;63015;45.378;20.360;2024-02-14T00:35:39;101077.84;;;5.75;73.15
74542;BME280;63015;45.378;20.360;2024-02-14T00:37:40;101089.78;;;5.70;73.02
74542;BME280;63015;45.378;20.360;2024-02-14T00:39:40;101090.16;;;5.54;73.76
74542;BME280;63015;45.378;20.360;2024-02-14T00:41:41;101097.06;;;5.55;73.42
74542;BME280;63015;45.378;20.360;2024-02-14T00:43:41;101092.75;;;5.54;73.10
74542;BME280;63015;45.378;20.360;2024-02-14T00:45:42;101096.91;;;5.49;73.41
74542;BME280;63015;45.378;20.360;2024-02-14T00:47:43;101097.25;;;5.32;74.02
74542;BME280;63015;45.378;20.360;2024-02-14T00:49:43;101099.09;;;5.36;73.84
74542;BME280;63015;45.378;20.360;2024-02-14T00:51:43;101103.16;;;5.28;73.70
74542;BME280;63015;45.378;20.360;2024-02-14T00:53:44;101101.09;;;5.18;74.16
74542;BME280;63015;45.378;20.360;2024-02-14T00:55:44;101103.63;;;5.16;74.05
74542;BME280;63015;45.378;20.360;2024-02-14T00:57:45;101100.06;;;5.13;74.00
74542;BME280;63015;45.378;20.360;2024-02-14T00:59:45;101109.47;;;5.10;74.16
74542;BME280;63015;45.378;20.360;2024-02-14T01:01:46;101105.59;;;4.96;74.76
74542;BME280;63015;45.378;20.360;2024-02-14T01:03:47;101114.41;;;5.03;74.18
74542;BME280;63015;45.378;20.360;2024-02-14T01:05:47;101112.38;;;4.94;74.50
74542;BME280;63015;45.378;20.360;2024-02-14T01:07:48;101114.88;;;4.91;74.27
74542;BME280;63015;45.378;20.360;2024-02-14T01:09:48;101109.59;;;4.88;74.38
74542;BME280;63015;45.378;20.360;2024-02-14T01:11:50;101119.94;;;4.88;74.20
74542;BME280;63015;45.378;20.360;2024-02-14T01:13:50;101120.75;;;4.87;74.08
74542;BME280;63015;45.378;20.360;2024-02-14T01:15:52;101119.00;;;4.86;73.74
74542;BME280;63015;45.378;20.360;2024-02-14T01:17:52;101129.41;;;4.87;73.92
74542;BME280;63015;45.378;20.360;2024-02-14T01:19:53;101127.59;;;4.85;73.78
74542;BME280;63015;45.378;20.360;2024-02-14T01:21:53;101118.38;;;4.67;74.82
74542;BME280;63015;45.378;20.360;2024-02-14T01:23:53;101119.66;;;4.80;74.15
74542;BME280;63015;45.378;20.360;2024-02-14T01:25:54;101130.00;;;4.80;74.23
74542;BME280;63015;45.378;20.360;2024-02-14T01:27:56;101131.94;;;4.86;73.69
74542;BME280;63015;45.378;20.360;2024-02-14T01:29:56;101130.72;;;4.76;74.69
74542;BME280;63015;45.378;20.360;2024-02-14T01:31:57;101131.72;;;4.80;74.43
74542;BME280;63015;45.378;20.360;2024-02-14T01:33:58;101130.13;;;4.83;74.08
74542;BME280;63015;45.378;20.360;2024-02-14T01:35:59;101129.44;;;4.89;74.06
74542;BME280;63015;45.378;20.360;2024-02-14T01:37:59;101136.47;;;4.93;73.90
74542;BME280;63015;45.378;20.360;2024-02-14T01:40:01;101129.78;;;5.00;73.59
74542;BME280;63015;45.378;20.360;2024-02-14T01:42:01;101129.09;;;5.04;73.44
74542;BME280;63015;45.378;20.360;2024-02-14T01:44:07;101127.41;;;5.06;73.70
74542;BME280;63015;45.378;20.360;2024-02-14T01:46:07;101132.53;;;5.04;73.99
74542;BME280;63015;45.378;20.360;2024-02-14T01:48:08;101128.47;;;5.13;73.42
74542;BME280;63015;45.378;20.360;2024-02-14T01:50:09;101136.22;;;5.13;73.99
74542;BME280;63015;45.378;20.360;2024-02-14T01:52:11;101130.19;;;5.12;73.96
74542;BME280;63015;45.378;20.360;2024-02-14T01:54:12;101131.84;;;5.10;74.19
74542;BME280;63015;45.378;20.360;2024-02-14T01:56:16;101128.47;;;5.13;74.05
74542;BME280;63015;45.378;20.360;2024-02-14T01:58:16;101130.28;;;5.15;73.56
74542;BME280;63015;45.378;20.360;2024-02-14T02:00:17;101129.38;;;5.13;73.60
74542;BME280;63015;45.378;20.360;2024-02-14T02:02:19;101135.53;;;5.17;73.57
74542;BME280;63015;45.378;20.360;2024-02-14T02:04:19;101139.06;;;5.20;73.35
74542;BME280;63015;45.378;20.360;2024-02-14T02:06:21;101144.41;;;5.25;73.17
74542;BME280;63015;45.378;20.360;2024-02-14T02:08:21;101144.34;;;5.23;73.24
74542;BME280;63015;45.378;20.360;2024-02-14T02:10:22;101145.88;;;5.17;73.45
74542;BME280;63015;45.378;20.360;2024-02-14T02:12:26;101157.03;;;5.16;73.32
74542;BME280;63015;45.378;20.360;2024-02-14T02:14:27;101146.13;;;4.99;73.98
74542;BME280;63015;45.378;20.360;2024-02-14T02:16:28;101154.44;;;4.90;73.96
74542;BME280;63015;45.378;20.360;2024-02-14T02:18:28;101155.31;;;4.90;73.79
74542;BME280;63015;45.378;20.360;2024-02-14T02:20:29;101168.13;;;4.87;73.96
74542;BME280;63015;45.378;20.360;2024-02-14T02:22:29;101158.66;;;4.88;73.45
74542;BME280;63015;45.378;20.360;2024-02-14T02:24:32;101161.28;;;4.89;73.42
74542;BME280;63015;45.378;20.360;2024-02-14T02:26:33;101165.56;;;4.87;73.46
74542;BME280;63015;45.378;20.360;2024-02-14T02:28:33;101164.59;;;4.85;73.56
74542;BME280;63015;45.378;20.360;2024-02-14T02:30:34;101170.50;;;4.81;73.95
74542;BME280;63015;45.378;20.360;2024-02-14T02:32:35;101169.72;;;4.84;73.75
74542;BME280;63015;45.378;20.360;2024-02-14T02:34:36;101173.94;;;4.82;73.92
74542;BME280;63015;45.378;20.360;2024-02-14T02:36:40;101175.75;;;4.84;74.00
74542;BME280;63015;45.378;20.360;2024-02-14T02:38:40;101182.81;;;4.88;73.89
74542;BME280;63015;45.378;20.360;2024-02-14T02:40:41;101183.84;;;4.93;73.64
74542;BME280;63015;45.378;20.360;2024-02-14T02:42:41;101177.78;;;4.93;73.77
74542;BME280;63015;45.378;20.360;2024-02-14T02:44:42;101186.44;;;4.93;73.64
74542;BME280;63015;45.378;20.360;2024-02-14T02:46:42;101192.69;;;5.00;73.07
74542;BME280;63015;45.378;20.360;2024-02-14T02:48:46;101191.91;;;5.03;73.26
74542;BME280;63015;45.378;20.360;2024-02-14T02:50:47;101188.41;;;5.02;73.29
74542;BME280;63015;45.378;20.360;2024-02-14T02:52:49;101194.56;;;5.06;73.12
74542;BME280;63015;45.378;20.360;2024-02-14T02:54:50;101190.41;;;5.09;72.70
74542;BME280;63015;45.378;20.360;2024-02-14T02:56:50;101200.78;;;5.11;73.00
74542;BME280;63015;45.378;20.360;2024-02-14T02:58:51;101199.97;;;5.12;72.69
74542;BME280;63015;45.378;20.360;2024-02-14T03:00:54;101201.97;;;5.21;72.45
74542;BME280;63015;45.378;20.360;2024-02-14T03:02:55;101199.13;;;5.13;72.92
74542;BME280;63015;45.378;20.360;2024-02-14T03:04:56;101199.88;;;5.09;72.67
74542;BME280;63015;45.378;20.360;2024-02-14T03:06:57;101202.59;;;5.14;72.57
74542;BME280;63015;45.378;20.360;2024-02-14T03:08:59;101207.09;;;5.19;72.50
74542;BME280;63015;45.378;20.360;2024-02-14T03:11:04;101201.41;;;5.30;72.33
74542;BME280;63015;45.378;20.360;2024-02-14T03:13:06;101206.53;;;5.28;72.27
74542;BME280;63015;45.378;20.360;2024-02-14T03:15:08;101207.50;;;5.32;72.14
74542;BME280;63015;45.378;20.360;2024-02-14T03:17:10;101218.81;;;5.35;71.96
74542;BME280;63015;45.378;20.360;2024-02-14T03:19:11;101211.88;;;5.34;72.27
74542;BME280;63015;45.378;20.360;2024-02-14T03:21:11;101219.75;;;5.37;72.37
74542;BME280;63015;45.378;20.360;2024-02-14T03:23:12;101210.09;;;5.32;72.15
74542;BME280;63015;45.378;20.360;2024-02-14T03:25:20;101225.03;;;5.40;72.06
74542;BME280;63015;45.378;20.360;2024-02-14T03:27:20;101224.19;;;5.41;72.08
74542;BME280;63015;45.378;20.360;2024-02-14T03:29:23;101234.69;;;5.46;72.11
74542;BME280;63015;45.378;20.360;2024-02-14T03:31:24;101225.22;;;5.47;71.96
74542;BME280;63015;45.378;20.360;2024-02-14T03:33:26;101235.63;;;5.48;72.09
74542;BME280;63015;45.378;20.360;2024-02-14T03:35:26;101233.75;;;5.44;72.32
74542;BME280;63015;45.378;20.360;2024-02-14T03:37:27;101236.34;;;5.44;72.18
74542;BME280;63015;45.378;20.360;2024-02-14T03:39:30;101240.56;;;5.42;72.54
74542;BME280;63015;45.378;20.360;2024-02-14T03:41:32;101240.75;;;5.47;72.13
74542;BME280;63015;45.378;20.360;2024-02-14T03:43:32;101243.31;;;5.47;72.43
74542;BME280;63015;45.378;20.360;2024-02-14T03:45:33;101245.66;;;5.39;72.75
74542;BME280;63015;45.378;20.360;2024-02-14T03:47:34;101255.06;;;5.37;72.76
74542;BME280;63015;45.378;20.360;2024-02-14T03:49:34;101249.88;;;5.37;73.00
74542;BME280;63015;45.378;20.360;2024-02-14T03:51:35;101253.41;;;5.39;72.82
74542;BME280;63015;45.378;20.360;2024-02-14T03:53:35;101262.25;;;5.46;72.46
74542;BME280;63015;45.378;20.360;2024-02-14T03:55:37;101260.56;;;5.46;72.31
74542;BME280;63015;45.378;20.360;2024-02-14T03:57:38;101265.59;;;5.43;72.62
74542;BME280;63015;45.378;20.360;2024-02-14T03:59:39;101273.28;;;5.40;72.66
74542;BME280;63015;45.378;20.360;2024-02-14T04:01:46;101275.91;;;5.41;72.44
74542;BME280;63015;45.378;20.360;2024-02-14T04:03:46;101278.19;;;5.32;72.98
74542;BME280;63015;45.378;20.360;2024-02-14T04:05:48;101279.16;;;5.36;72.48
74542;BME280;63015;45.378;20.360;2024-02-14T04:07:49;101282.44;;;5.32;72.10
74542;BME280;63015;45.378;20.360;2024-02-14T04:09:52;101286.75;;;5.31;72.55
74542;BME280;63015;45.378;20.360;2024-02-14T04:11:52;101286.78;;;5.33;72.23
74542;BME280;63015;45.378;20.360;2024-02-14T04:13:53;101288.50;;;5.32;72.11
74542;BME280;63015;45.378;20.360;2024-02-14T04:15:53;101288.50;;;5.32;72.04
74542;BME280;63015;45.378;20.360;2024-02-14T04:17:54;101286.53;;;5.25;71.89
74542;BME280;63015;45.378;20.360;2024-02-14T04:19:54;101282.97;;;5.21;71.88
74542;BME280;63015;45.378;20.360;2024-02-14T04:21:55;101288.03;;;5.18;72.01
74542;BME280;63015;45.378;20.360;2024-02-14T04:23:56;101283.50;;;5.13;71.66
74542;BME280;63015;45.378;20.360;2024-02-14T04:25:56;101290.44;;;5.14;71.61
74542;BME280;63015;45.378;20.360;2024-02-14T04:27:57;101291.22;;;5.11;71.63
74542;BME280;63015;45.378;20.360;2024-02-14T04:30:01;101292.03;;;5.10;71.53
74542;BME280;63015;45.378;20.360;2024-02-14T04:32:02;101296.28;;;5.08;71.32
74542;BME280;63015;45.378;20.360;2024-02-14T04:34:03;101303.81;;;5.02;71.25
74542;BME280;63015;45.378;20.360;2024-02-14T04:36:03;101304.47;;;4.96;71.40
74542;BME280;63015;45.378;20.360;2024-02-14T04:38:05;101303.44;;;4.91;71.55
74542;BME280;63015;45.378;20.360;2024-02-14T04:40:06;101312.78;;;4.87;71.60
74542;BME280;63015;45.378;20.360;2024-02-14T04:42:07;101316.06;;;4.83;71.71
74542;BME280;63015;45.378;20.360;2024-02-14T04:44:08;101320.19;;;4.78;71.83
74542;BME280;63015;45.378;20.360;2024-02-14T04:46:08;101317.72;;;4.58;72.43
74542;BME280;63015;45.378;20.360;2024-02-14T04:48:09;101317.84;;;4.61;72.23
74542;BME280;63015;45.378;20.360;2024-02-14T04:50:09;101321.91;;;4.55;72.52
74542;BME280;63015;45.378;20.360;2024-02-14T04:52:10;101318.19;;;4.48;72.56
74542;BME280;63015;45.378;20.360;2024-02-14T04:54:10;101324.94;;;4.44;72.46
74542;BME280;63015;45.378;20.360;2024-02-14T04:56:11;101323.19;;;4.43;72.37
74542;BME280;63015;45.378;20.360;2024-02-14T04:58:11;101333.56;;;4.45;72.18
74542;BME280;63015;45.378;20.360;2024-02-14T05:00:12;101327.44;;;4.43;72.22
74542;BME280;63015;45.378;20.360;2024-02-14T05:02:13;101334.28;;;4.41;72.24
74542;BME280;63015;45.378;20.360;2024-02-14T05:04:13;101332.00;;;4.27;72.95
74542;BME280;63015;45.378;20.360;2024-02-14T05:06:14;101338.84;;;4.25;72.99
74542;BME280;63015;45.378;20.360;2024-02-14T05:08:15;101337.00;;;4.23;73.09
74542;BME280;63015;45.378;20.360;2024-02-14T05:10:16;101337.00;;;4.23;72.60
74542;BME280;63015;45.378;20.360;2024-02-14T05:12:16;101348.25;;;4.25;72.48
74542;BME280;63015;45.378;20.360;2024-02-14T05:14:16;101347.34;;;4.23;73.04
74542;BME280;63015;45.378;20.360;2024-02-14T05:16:20;101343.78;;;4.21;72.95
74542;BME280;63015;45.378;20.360;2024-02-14T05:18:20;101351.06;;;4.08;73.55
74542;BME280;63015;45.378;20.360;2024-02-14T05:20:21;101349.41;;;4.10;73.04
74542;BME280;63015;45.378;20.360;2024-02-14T05:22:22;101349.41;;;4.10;73.19
74542;BME280;63015;45.378;20.360;2024-02-14T05:24:23;101355.22;;;4.05;73.24
74542;BME280;63015;45.378;20.360;2024-02-14T05:26:23;101350.88;;;4.04;73.21
74542;BME280;63015;45.378;20.360;2024-02-14T05:28:24;101361.94;;;4.01;73.05
74542;BME280;63015;45.378;20.360;2024-02-14T05:30:24;101363.66;;;4.01;73.34
74542;BME280;63015;45.378;20.360;2024-02-14T05:32:25;101367.97;;;4.02;72.98
74542;BME280;63015;45.378;20.360;2024-02-14T05:34:25;101368.50;;;3.93;73.38
74542;BME280;63015;45.378;20.360;2024-02-14T05:36:25;101367.53;;;3.91;73.33
74542;BME280;63015;45.378;20.360;2024-02-14T05:38:26;101370.94;;;3.90;73.19
74542;BME280;63015;45.378;20.360;2024-02-14T05:40:27;101376.09;;;3.90;73.43
74542;BME280;63015;45.378;20.360;2024-02-14T05:42:27;101381.25;;;3.90;73.06
74542;BME280;63015;45.378;20.360;2024-02-14T05:44:27;101377.72;;;3.88;73.11
74542;BME280;63015;45.378;20.360;2024-02-14T05:46:30;101381.13;;;3.87;73.02
74542;BME280;63015;45.378;20.360;2024-02-14T05:48:30;101390.63;;;3.88;73.10
74542;BME280;63015;45.378;20.360;2024-02-14T05:50:31;101380.97;;;3.84;72.91
74542;BME280;63015;45.378;20.360;2024-02-14T05:52:32;101388.81;;;3.85;72.23
74542;BME280;63015;45.378;20.360;2024-02-14T05:54:32;101390.47;;;3.85;72.68
74542;BME280;63015;45.378;20.360;2024-02-14T05:56:33;101391.44;;;3.87;72.87
74542;BME280;63015;45.378;20.360;2024-02-14T05:58:33;101392.38;;;3.89;72.71
74542;BME280;63015;45.378;20.360;2024-02-14T06:00:34;101389.56;;;3.83;72.79
74542;BME280;63015;45.378;20.360;2024-02-14T06:02:35;101405.25;;;3.89;72.57
74542;BME280;63015;45.378;20.360;2024-02-14T06:04:35;101398.28;;;3.86;72.65
74542;BME280;63015;45.378;20.360;2024-02-14T06:06:36;101393.75;;;3.81;72.70
74542;BME280;63015;45.378;20.360;2024-02-14T06:08:36;101398.22;;;3.85;72.69
74542;BME280;63015;45.378;20.360;2024-02-14T06:10:37;101410.31;;;3.86;72.84
74542;BME280;63015;45.378;20.360;2024-02-14T06:12:39;101411.13;;;3.85;72.81
74542;BME280;63015;45.378;20.360;2024-02-14T06:14:41;101420.34;;;3.79;73.24
74542;BME280;63015;45.378;20.360;2024-02-14T06:16:41;101406.72;;;3.82;73.01
74542;BME280;63015;45.378;20.360;2024-02-14T06:18:41;101407.59;;;3.83;73.11
74542;BME280;63015;45.378;20.360;2024-02-14T06:20:42;101406.38;;;3.74;73.89
74542;BME280;63015;45.378;20.360;2024-02-14T06:22:43;101417.78;;;3.79;73.91
74542;BME280;63015;45.378;20.360;2024-02-14T06:24:44;101416.75;;;3.76;73.96
74542;BME280;63015;45.378;20.360;2024-02-14T06:26:45;101421.16;;;3.78;74.12
74542;BME280;63015;45.378;20.360;2024-02-14T06:28:46;101425.78;;;3.86;73.82
74542;BME280;63015;45.378;20.360;2024-02-14T06:30:46;101428.78;;;3.97;73.52
74542;BME280;63015;45.378;20.360;2024-02-14T06:32:47;101419.69;;;4.05;73.42
74542;BME280;63015;45.378;20.360;2024-02-14T06:34:47;101429.59;;;4.15;73.65
74542;BME280;63015;45.378;20.360;2024-02-14T06:36:48;101422.75;;;4.17;73.96
74542;BME280;63015;45.378;20.360;2024-02-14T06:38:48;101420.81;;;4.11;74.77
74542;BME280;63015;45.378;20.360;2024-02-14T06:40:51;101427.44;;;4.26;74.35
74542;BME280;63015;45.378;20.360;2024-02-14T06:42:51;101425.72;;;4.48;74.09
74542;BME280;63015;45.378;20.360;2024-02-14T06:44:52;101420.06;;;4.56;73.83
74542;BME280;63015;45.378;20.360;2024-02-14T06:46:52;101429.78;;;4.64;73.44
74542;BME280;63015;45.378;20.360;2024-02-14T06:48:53;101421.34;;;4.90;73.19
74542;BME280;63015;45.378;20.360;2024-02-14T06:50:54;101421.53;;;4.95;73.00
74542;BME280;63015;45.378;20.360;2024-02-14T06:52:55;101428.63;;;5.01;72.86
74542;BME280;63015;45.378;20.360;2024-02-14T06:54:59;101423.63;;;5.28;72.48
74542;BME280;63015;45.378;20.360;2024-02-14T06:57:00;101426.97;;;5.50;72.40
74542;BME280;63015;45.378;20.360;2024-02-14T06:59:01;101424.84;;;5.62;71.42
74542;BME280;63015;45.378;20.360;2024-02-14T07:01:02;101427.91;;;6.00;71.22
74542;BME280;63015;45.378;20.360;2024-02-14T07:03:03;101434.56;;;6.19;70.33
74542;BME280;63015;45.378;20.360;2024-02-14T07:05:04;101436.72;;;6.31;69.27
74542;BME280;63015;45.378;20.360;2024-02-14T07:07:07;101435.06;;;6.35;69.71
74542;BME280;63015;45.378;20.360;2024-02-14T07:09:08;101433.44;;;6.37;68.88
74542;BME280;63015;45.378;20.360;2024-02-14T07:11:10;101441.59;;;6.49;68.33
74542;BME280;63015;45.378;20.360;2024-02-14T07:13:11;101444.28;;;6.52;67.88
74542;BME280;63015;45.378;20.360;2024-02-14T07:15:11;101443.47;;;6.82;68.26
74542;BME280;63015;45.378;20.360;2024-02-14T07:17:12;101434.00;;;6.83;68.25
74542;BME280;63015;45.378;20.360;2024-02-14T07:19:12;101451.53;;;6.91;67.58
74542;BME280;63015;45.378;20.360;2024-02-14T07:21:13;101448.84;;;7.17;67.53
74542;BME280;63015;45.378;20.360;2024-02-14T07:23:13;101443.66;;;7.17;67.08
74542;BME280;63015;45.378;20.360;2024-02-14T07:25:14;101446.56;;;7.28;66.00
74542;BME280;63015;45.378;20.360;2024-02-14T07:27:15;101452.19;;;7.44;66.56
74542;BME280;63015;45.378;20.360;2024-02-14T07:29:16;101451.88;;;7.33;64.85
74542;BME280;63015;45.378;20.360;2024-02-14T07:31:17;101452.81;;;7.35;64.92
74542;BME280;63015;45.378;20.360;2024-02-14T07:33:17;101454.13;;;7.20;65.24
74542;BME280;63015;45.378;20.360;2024-02-14T07:35:18;101455.47;;;7.38;64.83
74542;BME280;63015;45.378;20.360;2024-02-14T07:37:18;101456.22;;;7.64;64.74
74542;BME280;63015;45.378;20.360;2024-02-14T07:39:20;101457.59;;;7.51;64.54
74542;BME280;63015;45.378;20.360;2024-02-14T07:41:20;101454.69;;;7.40;64.92
74542;BME280;63015;45.378;20.360;2024-02-14T07:43:21;101457.34;;;7.74;64.34
74542;BME280;63015;45.378;20.360;2024-02-14T07:45:21;101460.88;;;7.76;64.74
74542;BME280;63015;45.378;20.360;2024-02-14T07:47:22;101460.53;;;7.96;63.89
74542;BME280;63015;45.378;20.360;2024-02-14T07:49:22;101456.13;;;7.93;64.58
74542;BME280;63015;45.378;20.360;2024-02-14T07:51:23;101454.88;;;8.11;63.71
74542;BME280;63015;45.378;20.360;2024-02-14T07:53:23;101462.78;;;8.15;62.72
74542;BME280;63015;45.378;20.360;2024-02-14T07:55:24;101457.97;;;8.31;62.50
74542;BME280;63015;45.378;20.360;2024-02-14T07:57:24;101454.63;;;8.35;62.57
74542;BME280;63015;45.378;20.360;2024-02-14T07:59:25;101464.34;;;8.44;62.08
74542;BME280;63015;45.378;20.360;2024-02-14T08:01:26;101465.69;;;8.63;62.46
74542;BME280;63015;45.378;20.360;2024-02-14T08:03:26;101465.03;;;8.71;62.35
74542;BME280;63015;45.378;20.360;2024-02-14T08:05:27;101471.19;;;8.75;62.06
74542;BME280;63015;45.378;20.360;2024-02-14T08:07:27;101466.56;;;9.01;61.09
74542;BME280;63015;45.378;20.360;2024-02-14T08:09:29;101467.97;;;8.85;60.03
74542;BME280;63015;45.378;20.360;2024-02-14T08:11:29;101466.97;;;9.18;60.96
74542;BME280;63015;45.378;20.360;2024-02-14T08:13:30;101465.53;;;9.34;60.82
74542;BME280;63015;45.378;20.360;2024-02-14T08:15:30;101466.06;;;9.18;60.66
74542;BME280;63015;45.378;20.360;2024-02-14T08:17:31;101461.78;;;9.20;60.29
74542;BME280;63015;45.378;20.360;2024-02-14T08:19:32;101459.03;;;9.55;59.62
74542;BME280;63015;45.378;20.360;2024-02-14T08:21:32;101466.69;;;9.49;57.99
74542;BME280;63015;45.378;20.360;2024-02-14T08:23:33;101452.81;;;9.47;59.38
74542;BME280;63015;45.378;20.360;2024-02-14T08:25:34;101452.66;;;9.85;58.01
74542;BME280;63015;45.378;20.360;2024-02-14T08:27:35;101458.22;;;10.03;57.05
74542;BME280;63015;45.378;20.360;2024-02-14T08:29:35;101450.47;;;10.08;57.15
74542;BME280;63015;45.378;20.360;2024-02-14T08:31:36;101450.56;;;10.13;55.66
74542;BME280;63015;45.378;20.360;2024-02-14T08:33:36;101441.34;;;10.33;56.60
74542;BME280;63015;45.378;20.360;2024-02-14T08:35:37;101454.78;;;10.58;56.08
74542;BME280;63015;45.378;20.360;2024-02-14T08:37:37;101452.38;;;10.69;54.10
74542;BME280;63015;45.378;20.360;2024-02-14T08:39:40;101450.38;;;10.54;54.18
74542;BME280;63015;45.378;20.360;2024-02-14T08:41:43;101450.16;;;10.40;52.38
74542;BME280;63015;45.378;20.360;2024-02-14T08:43:45;101448.81;;;10.64;53.53
74542;BME280;63015;45.378;20.360;2024-02-14T08:45:45;101461.19;;;10.79;51.31
74542;BME280;63015;45.378;20.360;2024-02-14T08:47:46;101447.19;;;10.74;52.14
74542;BME280;63015;45.378;20.360;2024-02-14T08:49:46;101447.28;;;10.80;49.02
74542;BME280;63015;45.378;20.360;2024-02-14T08:51:47;101450.31;;;11.09;51.26
74542;BME280;63015;45.378;20.360;2024-02-14T08:53:49;101445.00;;;11.03;50.77
74542;BME280;63015;45.378;20.360;2024-02-14T08:55:55;101453.13;;;11.26;49.31
74542;BME280;63015;45.378;20.360;2024-02-14T08:57:55;101450.88;;;10.86;50.39
74542;BME280;63015;45.378;20.360;2024-02-14T08:59:56;101460.94;;;11.23;48.77
74542;BME280;63015;45.378;20.360;2024-02-14T09:01:56;101460.66;;;11.03;49.57
74542;BME280;63015;45.378;20.360;2024-02-14T09:03:57;101450.09;;;10.92;50.15
74542;BME280;63015;45.378;20.360;2024-02-14T09:05:59;101454.16;;;11.39;50.19
74542;BME280;63015;45.378;20.360;2024-02-14T09:08:00;101443.72;;;11.39;48.41
74542;BME280;63015;45.378;20.360;2024-02-14T09:10:00;101456.72;;;11.34;49.64
74542;BME280;63015;45.378;20.360;2024-02-14T09:12:01;101452.50;;;11.44;49.10
74542;BME280;63015;45.378;20.360;2024-02-14T09:14:02;101452.53;;;10.83;47.69
74542;BME280;63015;45.378;20.360;2024-02-14T09:16:08;101454.00;;;10.12;47.60
74542;BME280;63015;45.378;20.360;2024-02-14T09:18:08;101455.88;;;10.19;49.05
74542;BME280;63015;45.378;20.360;2024-02-14T09:20:09;101455.22;;;10.86;49.14
74542;BME280;63015;45.378;20.360;2024-02-14T09:22:10;101455.25;;;10.91;48.75
74542;BME280;63015;45.378;20.360;2024-02-14T09:24:10;101461.06;;;11.35;47.16
74542;BME280;63015;45.378;20.360;2024-02-14T09:26:11;101455.44;;;11.75;47.18
74542;BME280;63015;45.378;20.360;2024-02-14T09:28:12;101463.38;;;11.84;47.88
74542;BME280;63015;45.378;20.360;2024-02-14T09:30:14;101460.16;;;12.09;47.85
74542;BME280;63015;45.378;20.360;2024-02-14T09:32:14;101451.69;;;12.34;47.64
74542;BME280;63015;45.378;20.360;2024-02-14T09:34:15;101452.59;;;12.43;47.06
74542;BME280;63015;45.378;20.360;2024-02-14T09:36:18;101450.09;;;12.55;46.14
74542;BME280;63015;45.378;20.360;2024-02-14T09:38:19;101448.47;;;12.71;44.53
74542;BME280;63015;45.378;20.360;2024-02-14T09:40:20;101456.50;;;11.17;44.56
74542;BME280;63015;45.378;20.360;2024-02-14T09:42:28;101456.47;;;11.14;44.89
74542;BME280;63015;45.378;20.360;2024-02-14T09:44:34;101450.97;;;11.63;45.90
74542;BME280;63015;45.378;20.360;2024-02-14T09:46:36;101459.47;;;10.27;46.27
74542;BME280;63015;45.378;20.360;2024-02-14T09:48:41;101452.28;;;11.27;45.69
74542;BME280;63015;45.378;20.360;2024-02-14T09:50:44;101455.28;;;11.61;46.25
74542;BME280;63015;45.378;20.360;2024-02-14T09:52:47;101451.16;;;11.83;45.08
74542;BME280;63015;45.378;20.360;2024-02-14T09:54:48;101446.31;;;12.19;45.31
74542;BME280;63015;45.378;20.360;2024-02-14T09:56:52;101449.66;;;12.01;43.40
74542;BME280;63015;45.378;20.360;2024-02-14T09:58:53;101436.84;;;12.29;44.58
74542;BME280;63015;45.378;20.360;2024-02-14T10:00:57;101442.25;;;12.55;44.68
74542;BME280;63015;45.378;20.360;2024-02-14T10:02:59;101444.00;;;12.58;44.18
74542;BME280;63015;45.378;20.360;2024-02-14T10:04:59;101446.72;;;12.70;43.50
74542;BME280;63015;45.378;20.360;2024-02-14T10:07:00;101447.69;;;12.86;43.80
74542;BME280;63015;45.378;20.360;2024-02-14T10:09:01;101440.31;;;12.29;43.27
74542;BME280;63015;45.378;20.360;2024-02-14T10:11:02;101444.75;;;12.37;44.36
74542;BME280;63015;45.378;20.360;2024-02-14T10:13:05;101440.19;;;12.12;42.04
74542;BME280;63015;45.378;20.360;2024-02-14T10:15:07;101443.06;;;12.45;42.99
74542;BME280;63015;45.378;20.360;2024-02-14T10:17:07;101436.13;;;12.50;43.16
74542;BME280;63015;45.378;20.360;2024-02-14T10:19:19;101441.34;;;12.50;43.78
74542;BME280;63015;45.378;20.360;2024-02-14T10:21:21;101435.47;;;12.87;43.54
74542;BME280;63015;45.378;20.360;2024-02-14T10:23:22;101427.75;;;13.04;42.71
74542;BME280;63015;45.378;20.360;2024-02-14T10:25:22;101427.81;;;13.19;42.56
74542;BME280;63015;45.378;20.360;2024-02-14T10:27:23;101426.81;;;12.92;42.06
74542;BME280;63015;45.378;20.360;2024-02-14T10:29:24;101425.22;;;13.28;42.30
74542;BME280;63015;45.378;20.360;2024-02-14T10:31:25;101431.19;;;12.93;42.06